Time;durP1;ratioP1;P1;durP2;ratioP2;P2;SDS_P1;SDS_P2;PMS_P1;PMS_P2;Temp;Humidity;BMP_temperature;BMP_pressure;BME280_temperature;BME280_humidity;BME280_pressure;Samples;Min_cycle;Max_cycle;Signal;HPM_P1;HPM_P2
2022/04/07 00:00:50;;;;;;;1.30;1.20;;;;;;;10.99;78.91;97253.84;5054462;28;40961;-77
2022/04/07 00:03:17;;;;;;;1.20;1.10;;;;;;;11.09;78.46;97272.41;5071127;28;39906;-78
2022/04/07 00:05:45;;;;;;;1.30;1.20;;;;;;;11.12;78.24;97254.44;5084124;28;42826;-76
2022/04/07 00:08:12;;;;;;;1.57;1.37;;;;;;;11.06;78.63;97244.38;5074216;28;42460;-78
2022/04/07 00:10:40;;;;;;;1.40;1.30;;;;;;;11.15;78.19;97269.19;5074387;28;41885;-80
2022/04/07 00:13:08;;;;;;;1.40;1.30;;;;;;;11.12;78.53;97265.03;5073824;28;39936;-83
2022/04/07 00:15:36;;;;;;;1.53;1.30;;;;;;;11.08;78.45;97257.47;5074158;28;41034;-79
2022/04/07 00:18:06;;;;;;;1.30;1.20;;;;;;;11.10;78.50;97259.03;5073974;28;42041;-78
2022/04/07 00:20:34;;;;;;;2.03;1.40;;;;;;;11.04;78.92;97262.22;5074118;28;42515;-76
2022/04/07 00:23:01;;;;;;;1.27;1.17;;;;;;;10.96;78.54;97264.72;5090400;28;39742;-78
2022/04/07 00:25:29;;;;;;;1.40;1.30;;;;;;;10.85;79.54;97251.59;5091137;28;40649;-79
2022/04/07 00:27:57;;;;;;;1.50;1.23;;;;;;;10.73;80.09;97242.94;5073698;28;41712;-81
2022/04/07 00:30:26;;;;;;;2.10;1.30;;;;;;;10.75;80.57;97245.47;5091006;28;43187;-79
2022/04/07 00:32:53;;;;;;;1.23;1.13;;;;;;;10.60;80.16;97225.63;5090632;28;40946;-80
2022/04/07 00:35:22;;;;;;;1.50;1.40;;;;;;;10.75;79.99;97240.16;5069048;28;41018;-79
2022/04/07 00:37:50;;;;;;;1.33;1.23;;;;;;;10.80;79.38;97243.22;5071465;28;43532;-76
2022/04/07 00:40:19;;;;;;;2.13;1.53;;;;;;;10.75;79.41;97232.22;5070499;28;42234;-81
2022/04/07 00:42:47;;;;;;;1.57;1.47;;;;;;;10.59;79.27;97202.78;5070530;28;39031;-79
2022/04/07 00:45:15;;;;;;;1.40;1.10;;;;;;;10.60;79.68;97215.03;5070415;28;40408;-78
2022/04/07 00:47:45;;;;;;;1.20;1.13;;;;;;;10.54;80.20;97220.88;5053342;28;42015;-78
2022/04/07 00:50:14;;;;;;;1.50;1.27;;;;;;;10.49;80.96;97209.88;5053509;28;42806;-79
2022/04/07 00:52:44;;;;;;;1.70;1.50;;;;;;;10.47;80.16;97209.16;5053449;28;39796;-82
2022/04/07 00:55:14;;;;;;;1.30;1.20;;;;;;;10.45;80.43;97196.06;5070175;28;42317;-77
2022/04/07 00:57:43;;;;;;;1.33;1.23;;;;;;;10.49;81.25;97186.88;5073757;28;42949;-78
2022/04/07 01:00:13;;;;;;;1.53;1.43;;;;;;;10.48;80.71;97179.06;5078494;28;42134;-78
2022/04/07 01:02:41;;;;;;;0.87;0.87;;;;;;;10.56;80.17;97187.16;5060829;28;40954;-76
2022/04/07 01:05:11;;;;;;;1.50;1.20;;;;;;;10.47;80.42;97177.41;5060507;28;43772;-79
2022/04/07 01:07:39;;;;;;;1.40;1.30;;;;;;;10.37;80.23;97174.75;5078390;28;42863;-79
2022/04/07 01:10:09;;;;;;;1.20;1.07;;;;;;;10.43;80.09;97195.34;5060966;28;41498;-77
2022/04/07 01:12:37;;;;;;;1.73;1.10;;;;;;;10.31;80.56;97178.75;5078456;28;40290;-76
2022/04/07 01:15:06;;;;;;;1.30;1.20;;;;;;;10.39;80.42;97200.06;5063374;28;40823;-76
2022/04/07 01:17:34;;;;;;;1.87;1.50;;;;;;;10.38;80.42;97201.06;5079399;28;41974;-76
2022/04/07 01:20:02;;;;;;;1.50;1.40;;;;;;;10.38;80.25;97195.78;5080493;28;42256;-77
2022/04/07 01:22:33;;;;;;;1.10;1.03;;;;;;;10.39;80.20;97189.47;5059294;28;39012;-77
2022/04/07 01:25:02;;;;;;;1.10;1.00;;;;;;;10.50;79.79;97199.16;5071210;28;42605;-77
2022/04/07 01:27:29;;;;;;;1.30;1.20;;;;;;;10.57;79.37;97191.50;5069730;28;42849;-79
2022/04/07 01:29:57;;;;;;;1.43;1.33;;;;;;;10.53;79.20;97179.50;5070355;28;43701;-79
2022/04/07 01:32:33;;;;;;;1.70;1.20;;;;;;;10.63;78.55;97177.72;5070041;28;40015;-76
2022/04/07 01:35:01;;;;;;;1.30;1.20;;;;;;;10.62;78.25;97186.63;5053978;28;41552;-82
2022/04/07 01:37:28;;;;;;;2.73;1.03;;;;;;;10.41;78.23;97153.16;5053315;28;42997;-78
2022/04/07 01:39:56;;;;;;;3.20;1.20;;;;;;;10.46;78.13;97181.03;5053050;28;41959;-79
2022/04/07 01:42:25;;;;;;;1.50;1.30;;;;;;;10.35;78.50;97185.47;5052929;28;40310;-75
2022/04/07 01:44:58;;;;;;;1.20;1.10;;;;;;;10.20;78.58;97173.56;5072481;28;41809;-79
2022/04/07 01:47:26;;;;;;;1.60;1.50;;;;;;;10.22;78.70;97195.44;5061911;28;42730;-82
2022/04/07 01:49:58;;;;;;;1.40;1.30;;;;;;;10.19;79.22;97187.75;5070224;28;43149;-77
2022/04/07 01:52:28;;;;;;;1.50;1.40;;;;;;;10.19;79.16;97187.75;5067932;28;40866;-79
2022/04/07 01:54:55;;;;;;;1.77;1.10;;;;;;;10.28;78.54;97181.66;5053207;28;40684;-78
2022/04/07 01:57:25;;;;;;;1.77;1.10;;;;;;;10.46;78.11;97170.44;5069836;28;42800;-79
2022/04/07 01:59:53;;;;;;;1.00;0.90;;;;;;;10.55;77.60;97165.16;5052912;28;42390;-78
2022/04/07 02:02:22;;;;;;;1.40;1.30;;;;;;;10.58;77.16;97153.47;5070040;28;40101;-77
2022/04/07 02:04:57;;;;;;;1.83;1.10;;;;;;;10.53;76.94;97163.59;5069548;28;42336;-78
2022/04/07 02:07:29;;;;;;;1.30;1.20;;;;;;;10.50;77.00;97166.56;5068476;28;42723;-80
2022/04/07 02:09:56;;;;;;;0.90;0.90;;;;;;;10.46;76.96;97165.13;5068912;28;42147;-81
2022/04/07 02:12:27;;;;;;;1.27;1.10;;;;;;;10.41;76.72;97174.31;5052691;28;38989;-82
2022/04/07 02:14:55;;;;;;;1.23;1.13;;;;;;;10.39;77.07;97170.97;5073611;28;40677;-77
2022/04/07 02:17:22;;;;;;;2.50;1.30;;;;;;;10.23;77.53;97154.78;5074152;28;42649;-79
2022/04/07 02:19:51;;;;;;;1.80;1.43;;;;;;;10.34;78.01;97162.63;5073064;28;41193;-80
2022/04/07 02:22:19;;;;;;;2.27;1.40;;;;;;;10.38;77.72;97153.44;5073046;28;40952;-81
2022/04/07 02:24:48;;;;;;;2.10;1.90;;;;;;;10.42;77.75;97160.13;5072968;28;41123;-78
2022/04/07 02:27:16;;;;;;;2.40;1.90;;;;;;;10.46;77.33;97149.25;5055672;28;41856;-79
2022/04/07 02:29:45;;;;;;;1.80;1.70;;;;;;;10.55;77.26;97164.31;5072963;28;41482;-81
2022/04/07 02:32:12;;;;;;;3.03;2.00;;;;;;;10.55;77.10;97161.66;5056352;28;40310;-79
2022/04/07 02:34:41;;;;;;;3.60;2.23;;;;;;;10.57;76.94;97151.78;5073814;28;41468;-80
2022/04/07 02:37:08;;;;;;;2.40;2.20;;;;;;;10.55;77.03;97143.13;5072267;28;43799;-80
2022/04/07 02:39:36;;;;;;;4.40;2.10;;;;;;;10.51;77.00;97150.50;5072886;28;42377;-80
2022/04/07 02:42:04;;;;;;;2.10;1.90;;;;;;;10.42;77.00;97125.72;5073631;28;40017;-76
2022/04/07 02:44:31;;;;;;;3.77;1.90;;;;;;;10.43;76.38;97119.44;5055861;28;42251;-78
2022/04/07 02:47:00;;;;;;;3.13;2.10;;;;;;;10.54;76.44;97117.66;5071493;28;41705;-83
2022/04/07 02:49:28;;;;;;;2.00;1.87;;;;;;;10.67;75.72;97131.44;5071999;28;41151;-81
2022/04/07 02:51:55;;;;;;;2.23;1.67;;;;;;;10.75;75.54;97128.97;5071808;28;38809;-79
2022/04/07 02:54:23;;;;;;;2.07;1.97;;;;;;;10.85;75.21;97132.44;5072356;28;41967;-78
2022/04/07 02:56:50;;;;;;;1.50;1.40;;;;;;;10.89;74.63;97139.13;5054848;28;41499;-79
2022/04/07 02:59:18;;;;;;;1.50;1.40;;;;;;;10.79;74.17;97117.09;5072763;28;43353;-78
2022/04/07 03:01:45;;;;;;;1.90;1.50;;;;;;;10.76;74.41;97099.69;5072066;28;38607;-79
2022/04/07 03:04:14;;;;;;;1.70;1.60;;;;;;;10.92;74.28;97125.59;5077401;28;42562;-77
2022/04/07 03:06:41;;;;;;;2.40;1.60;;;;;;;10.84;74.44;97112.22;5055505;28;42639;-79
2022/04/07 03:09:09;;;;;;;1.80;1.50;;;;;;;10.85;74.66;97113.06;5073314;28;43143;-78
2022/04/07 03:11:36;;;;;;;3.23;1.80;;;;;;;10.87;74.17;97106.66;5055354;28;39162;-79
2022/04/07 03:14:04;;;;;;;1.60;1.50;;;;;;;10.79;74.03;97082.69;5071750;28;40170;-82
2022/04/07 03:16:31;;;;;;;2.20;1.30;;;;;;;10.89;73.90;97087.97;5083049;28;43704;-82
2022/04/07 03:18:58;;;;;;;1.80;1.30;;;;;;;10.94;73.85;97089.22;5092165;28;42014;-78
2022/04/07 03:21:28;;;;;;;1.40;1.30;;;;;;;10.94;73.70;97083.09;5092331;28;40498;-78
2022/04/07 03:23:55;;;;;;;1.40;1.30;;;;;;;10.93;73.53;97078.78;5074496;28;41755;-79
2022/04/07 03:26:23;;;;;;;2.73;1.10;;;;;;;10.99;73.23;97084.34;5092281;28;42540;-79
2022/04/07 03:28:50;;;;;;;1.37;1.27;;;;;;;10.82;73.06;97060.38;5092102;28;40897;-83
2022/04/07 03:31:18;;;;;;;1.40;1.30;;;;;;;10.98;72.99;97066.78;5092257;28;40716;-80
2022/04/07 03:33:46;;;;;;;1.50;1.17;;;;;;;10.95;73.00;97056.47;5126290;27;41714;-78
2022/04/07 03:36:13;;;;;;;1.43;1.13;;;;;;;11.02;72.98;97065.50;5092234;28;42739;-86
2022/04/07 03:38:42;;;;;;;1.23;1.00;;;;;;;11.07;72.88;97067.75;5093079;28;42178;-79
2022/04/07 03:41:10;;;;;;;2.00;1.20;;;;;;;11.09;72.79;97071.09;5075069;28;38853;-78
2022/04/07 03:43:37;;;;;;;1.50;1.10;;;;;;;11.06;72.71;97064.25;5108868;28;41852;-80
2022/04/07 03:46:05;;;;;;;1.70;1.07;;;;;;;11.10;72.70;97067.47;5092113;28;43522;-80
2022/04/07 03:48:32;;;;;;;1.27;0.90;;;;;;;11.02;72.36;97057.56;5074746;28;42236;-83
2022/04/07 03:50:59;;;;;;;1.13;0.90;;;;;;;11.16;72.19;97064.22;5091895;28;38835;-86
2022/04/07 03:53:27;;;;;;;0.80;0.80;;;;;;;11.16;72.32;97058.94;5092695;28;41575;-83
2022/04/07 03:55:56;;;;;;;1.93;0.90;;;;;;;11.13;72.36;97064.50;5075330;28;42767;-79
2022/04/07 03:58:25;;;;;;;0.87;0.80;;;;;;;11.06;72.60;97058.94;5084983;28;42471;-80
2022/04/07 04:00:52;;;;;;;1.10;0.90;;;;;;;11.11;72.46;97056.72;5071441;28;40127;-77
2022/04/07 04:03:20;;;;;;;0.97;0.90;;;;;;;10.99;73.09;97039.31;5054197;28;42754;-80
2022/04/07 04:05:47;;;;;;;0.80;0.80;;;;;;;11.13;72.72;97053.91;5071387;28;43741;-80
2022/04/07 04:08:14;;;;;;;0.50;0.50;;;;;;;11.14;72.63;97045.81;5054293;28;40823;-80
2022/04/07 04:10:42;;;;;;;0.73;0.60;;;;;;;11.03;72.33;97032.75;5054806;28;39588;-78
2022/04/07 04:13:11;;;;;;;1.03;0.70;;;;;;;11.10;73.20;97043.63;5058605;28;40872;-78
2022/04/07 04:15:39;;;;;;;1.80;0.70;;;;;;;11.03;73.60;97029.25;5056772;28;41976;-79
2022/04/07 04:18:07;;;;;;;0.60;0.60;;;;;;;11.00;74.07;97026.91;5070577;28;42453;-80
2022/04/07 04:20:34;;;;;;;0.70;0.70;;;;;;;10.85;74.38;97009.81;5054171;28;39007;-81
2022/04/07 04:23:01;;;;;;;1.90;0.77;;;;;;;10.92;74.54;97024.97;5054078;28;41085;-78
2022/04/07 04:25:29;;;;;;;0.70;0.70;;;;;;;10.66;75.10;97006.19;5071088;28;43587;-79
2022/04/07 04:27:56;;;;;;;0.70;0.70;;;;;;;10.81;75.12;97022.47;5053478;28;42209;-81
2022/04/07 04:30:25;;;;;;;0.70;0.70;;;;;;;10.80;75.44;97011.06;5070275;28;40038;-78
2022/04/07 04:32:53;;;;;;;1.07;0.67;;;;;;;10.64;76.06;96989.63;5070393;28;41700;-80
2022/04/07 04:35:21;;;;;;;0.83;0.73;;;;;;;10.74;76.78;97013.44;5069417;28;42662;-80
2022/04/07 04:37:48;;;;;;;0.70;0.70;;;;;;;10.71;77.17;97003.97;5070341;28;42214;-78
2022/04/07 04:40:16;;;;;;;0.70;0.70;;;;;;;10.58;77.30;96995.50;5071315;28;40979;-81
2022/04/07 04:42:43;;;;;;;0.80;0.80;;;;;;;10.62;77.70;96991.59;5053500;28;41071;-80
2022/04/07 04:45:11;;;;;;;0.80;0.53;;;;;;;10.59;78.53;96996.34;5070769;28;41899;-77
2022/04/07 04:47:40;;;;;;;1.10;1.00;;;;;;;10.55;78.46;96994.94;5070501;28;42568;-77
2022/04/07 04:50:09;;;;;;;0.80;0.80;;;;;;;10.42;78.71;96976.69;5070476;28;40587;-79
2022/04/07 04:52:36;;;;;;;0.60;0.60;;;;;;;10.48;79.33;96999.97;5071315;28;41755;-77
2022/04/07 04:55:05;;;;;;;0.60;0.60;;;;;;;10.44;79.43;97004.69;5070124;28;43631;-76
2022/04/07 04:57:32;;;;;;;2.00;0.70;;;;;;;10.43;78.97;97008.31;5068575;28;43035;-79
2022/04/07 04:59:59;;;;;;;1.43;0.70;;;;;;;10.47;78.28;97013.34;5070296;28;40049;-82
2022/04/07 05:02:27;;;;;;;0.60;0.60;;;;;;;10.44;78.06;97002.06;5068749;28;40677;-76
2022/04/07 05:04:56;;;;;;;0.70;0.70;;;;;;;10.41;78.37;97010.25;5069021;28;42029;-87
2022/04/07 05:07:23;;;;;;;1.13;0.70;;;;;;;10.42;77.92;97005.81;5068818;28;42224;-80
2022/04/07 05:09:56;;;;;;;1.07;0.70;;;;;;;10.53;77.45;97003.00;5068743;28;39935;-77
2022/04/07 05:12:23;;;;;;;0.90;0.90;;;;;;;10.50;77.21;96998.03;5052084;28;40746;-78
2022/04/07 05:14:51;;;;;;;0.70;0.70;;;;;;;10.47;76.81;96971.84;5053164;28;43325;-77
2022/04/07 05:17:19;;;;;;;0.70;0.70;;;;;;;10.65;76.34;96990.44;5069160;28;43199;-78
2022/04/07 05:19:46;;;;;;;0.70;0.70;;;;;;;10.65;76.06;96986.00;5071487;28;40117;-77
2022/04/07 05:22:16;;;;;;;0.67;0.67;;;;;;;10.60;75.86;96961.78;5069928;28;40901;-78
2022/04/07 05:24:43;;;;;;;0.70;0.70;;;;;;;10.77;75.36;96984.84;5049433;28;42799;-78
2022/04/07 05:27:11;;;;;;;0.60;0.60;;;;;;;10.85;75.05;96991.28;5066268;28;42829;-79
2022/04/07 05:29:38;;;;;;;0.80;0.67;;;;;;;10.88;74.83;96980.41;5049857;28;38710;-78
2022/04/07 05:32:07;;;;;;;0.63;0.63;;;;;;;10.92;74.54;96979.13;5049624;28;42765;-80
2022/04/07 05:34:35;;;;;;;0.77;0.60;;;;;;;11.07;74.33;96978.50;5052431;28;43036;-79
2022/04/07 05:37:02;;;;;;;1.93;0.70;;;;;;;11.15;73.51;96981.25;5070552;28;42917;-77
2022/04/07 05:39:31;;;;;;;0.83;0.70;;;;;;;11.29;73.01;96985.25;5069896;28;41650;-83
2022/04/07 05:42:01;;;;;;;0.73;0.70;;;;;;;11.32;72.94;96974.38;5053677;28;40573;-78
2022/04/07 05:44:29;;;;;;;0.60;0.60;;;;;;;11.28;72.90;96964.19;5069360;28;44024;-77
2022/04/07 05:46:56;;;;;;;0.67;0.67;;;;;;;11.18;73.26;96950.16;5072429;28;42891;-81
2022/04/07 05:49:24;;;;;;;0.80;0.80;;;;;;;11.21;72.98;96960.47;5073440;28;39489;-77
2022/04/07 05:51:54;;;;;;;0.70;0.70;;;;;;;11.16;73.85;96972.34;5074708;28;41712;-77
2022/04/07 05:54:22;;;;;;;1.00;0.70;;;;;;;11.18;74.60;96958.94;5072793;28;42696;-79
2022/04/07 05:56:51;;;;;;;0.93;0.67;;;;;;;11.19;74.54;96962.44;5074014;28;42228;-80
2022/04/07 05:59:18;;;;;;;1.07;0.70;;;;;;;11.23;74.34;96967.31;5073459;28;38996;-81
2022/04/07 06:01:46;;;;;;;0.63;0.57;;;;;;;11.26;74.70;96963.50;5056682;28;41442;-80
2022/04/07 06:04:14;;;;;;;0.73;0.60;;;;;;;11.23;74.83;96955.88;5072419;28;44777;-80
2022/04/07 06:06:41;;;;;;;0.67;0.67;;;;;;;11.14;74.76;96944.31;5077254;28;43185;-80
2022/04/07 06:09:08;;;;;;;1.67;0.60;;;;;;;11.18;75.37;96952.81;5082152;28;40500;-78
2022/04/07 06:11:36;;;;;;;0.60;0.60;;;;;;;11.15;75.46;96941.53;5081652;28;42646;-77
2022/04/07 06:14:05;;;;;;;0.87;0.70;;;;;;;11.24;75.75;96950.44;5058637;28;42930;-77
2022/04/07 06:16:33;;;;;;;0.60;0.60;;;;;;;11.22;75.02;96955.03;5062122;28;42468;-79
2022/04/07 06:19:00;;;;;;;0.67;0.67;;;;;;;11.25;75.02;96953.91;5080540;28;40146;-80
2022/04/07 06:21:29;;;;;;;0.50;0.50;;;;;;;11.36;75.15;96933.34;5074133;28;42798;-79
2022/04/07 06:23:57;;;;;;;0.60;0.57;;;;;;;11.44;74.56;96935.25;5051486;28;41979;-79
2022/04/07 06:26:25;;;;;;;0.47;0.47;;;;;;;11.52;74.60;96935.34;5052463;28;42198;-81
2022/04/07 06:28:52;;;;;;;0.90;0.63;;;;;;;11.59;73.73;96932.94;5036044;28;39026;-78
2022/04/07 06:31:21;;;;;;;0.60;0.60;;;;;;;11.42;74.09;96906.25;5053930;28;41582;-80
2022/04/07 06:33:49;;;;;;;2.53;0.50;;;;;;;11.53;74.15;96926.41;5053889;28;44438;-84
2022/04/07 06:36:16;;;;;;;0.60;0.60;;;;;;;11.58;74.30;96921.50;5056132;28;41100;-81
2022/04/07 06:38:47;;;;;;;0.40;0.40;;;;;;;11.61;73.56;96905.31;5055336;28;40115;-80
2022/04/07 06:41:15;;;;;;;2.07;0.50;;;;;;;11.74;73.31;96900.47;5047234;28;41704;-81
2022/04/07 06:43:42;;;;;;;0.50;0.50;;;;;;;11.88;72.99;96912.38;5053675;28;42848;-82
2022/04/07 06:46:10;;;;;;;2.10;0.60;;;;;;;11.82;72.23;96897.91;5080015;28;40959;-84
2022/04/07 06:48:39;;;;;;;0.60;0.60;;;;;;;11.93;72.55;96909.28;5027046;28;40119;-84
2022/04/07 06:51:06;;;;;;;0.77;0.60;;;;;;;12.06;71.87;96905.25;5035331;28;41709;-79
2022/04/07 06:53:34;;;;;;;0.60;0.60;;;;;;;12.20;70.94;96895.94;5059308;28;43101;-79
2022/04/07 06:56:01;;;;;;;0.80;0.60;;;;;;;12.45;69.92;96883.66;5055300;28;42108;-81
2022/04/07 06:58:29;;;;;;;0.60;0.60;;;;;;;12.45;69.05;96873.88;5071107;28;40117;-82
2022/04/07 07:00:57;;;;;;;0.63;0.60;;;;;;;12.71;69.22;96886.31;5107503;28;41919;-80
2022/04/07 07:03:24;;;;;;;0.43;0.43;;;;;;;12.76;68.79;96865.44;5039567;28;43371;-82
2022/04/07 07:05:58;;;;;;;1.90;0.57;;;;;;;12.96;67.81;96874.84;5053537;28;42047;-80
2022/04/07 07:08:26;;;;;;;0.50;0.50;;;;;;;13.09;67.39;96867.25;5068420;28;39912;-82
2022/04/07 07:10:54;;;;;;;0.77;0.73;;;;;;;13.14;67.29;96857.00;5054342;28;41735;-79
2022/04/07 07:13:23;;;;;;;0.60;0.60;;;;;;;13.28;67.47;96851.06;5037684;28;43396;-78
2022/04/07 07:15:52;;;;;;;2.70;0.70;;;;;;;13.42;66.58;96846.13;5052006;28;42323;-78
2022/04/07 07:18:19;;;;;;;2.20;0.63;;;;;;;13.75;65.25;96847.84;5053384;28;39965;-83
2022/04/07 07:20:47;;;;;;;1.60;0.60;;;;;;;13.87;64.84;96835.03;5035184;28;40782;-83
2022/04/07 07:23:16;;;;;;;0.60;0.60;;;;;;;14.07;63.71;96847.03;5051288;28;42826;-81
2022/04/07 07:25:44;;;;;;;0.57;0.57;;;;;;;14.16;62.87;96846.03;5051423;28;44269;-80
2022/04/07 07:28:12;;;;;;;0.50;0.50;;;;;;;14.00;63.53;96820.25;5046369;28;38774;-81
2022/04/07 07:30:40;;;;;;;0.57;0.47;;;;;;;14.05;63.26;96837.56;5054323;28;40581;-84
2022/04/07 07:33:07;;;;;;;0.70;0.70;;;;;;;13.94;63.56;96825.41;5040334;28;43303;-83
2022/04/07 07:35:35;;;;;;;1.23;0.50;;;;;;;13.89;63.37;96822.41;5053356;28;42959;-85
2022/04/07 07:38:04;;;;;;;0.50;0.50;;;;;;;13.84;63.01;96814.94;5041130;28;41669;-84
2022/04/07 07:40:34;;;;;;;0.70;0.63;;;;;;;13.63;63.29;96766.69;5035471;28;40936;-84
2022/04/07 07:43:02;;;;;;;0.50;0.50;;;;;;;14.08;62.40;96819.44;5034064;28;42668;-84
2022/04/07 07:45:32;;;;;;;1.23;0.60;;;;;;;14.08;61.61;96795.47;5055935;28;43244;-86
2022/04/07 07:48:00;;;;;;;0.50;0.50;;;;;;;14.15;61.73;96811.59;5041285;28;39519;-85
2022/04/07 07:50:27;;;;;;;0.53;0.53;;;;;;;14.10;62.21;96824.56;5035096;28;40662;-81
2022/04/07 07:52:55;;;;;;;0.50;0.50;;;;;;;13.83;63.13;96807.97;5051414;28;41906;-76
2022/04/07 07:55:22;;;;;;;1.23;0.60;;;;;;;13.31;65.68;96786.13;5071228;28;43432;-77
2022/04/07 07:57:52;;;;;;;0.87;0.60;;;;;;;12.80;67.88;96774.66;5074911;28;41812;-77
2022/04/07 08:00:19;;;;;;;0.43;0.43;;;;;;;12.55;70.09;96773.72;5052673;28;42683;-80
2022/04/07 08:02:47;;;;;;;0.63;0.47;;;;;;;12.38;71.10;96755.22;5058836;28;44292;-81
2022/04/07 08:05:14;;;;;;;0.60;0.60;;;;;;;12.40;72.01;96761.19;5034533;28;43862;-79
2022/04/07 08:07:43;;;;;;;0.67;0.50;;;;;;;12.33;71.93;96768.97;5065142;28;39966;-80
2022/04/07 08:10:11;;;;;;;0.77;0.50;;;;;;;12.31;72.51;96759.50;5072111;28;41818;-80
2022/04/07 08:12:40;;;;;;;0.50;0.50;;;;;;;12.29;72.14;96730.47;5042748;28;42845;-81
2022/04/07 08:15:10;;;;;;;1.20;0.50;;;;;;;12.51;72.11;96742.34;5038808;28;43701;-80
2022/04/07 08:17:38;;;;;;;0.80;0.70;;;;;;;12.52;71.71;96707.66;5043439;28;39008;-83
2022/04/07 08:20:07;;;;;;;2.03;0.90;;;;;;;12.49;71.39;96721.25;5067641;28;43001;-87
2022/04/07 08:22:35;;;;;;;2.00;0.83;;;;;;;12.77;71.11;96736.97;5075928;28;44602;-86
2022/04/07 08:25:02;;;;;;;1.77;0.70;;;;;;;12.93;70.33;96731.69;5053223;28;41322;-82
2022/04/07 08:27:30;;;;;;;2.27;0.87;;;;;;;13.01;68.58;96731.72;5064907;28;40875;-84
2022/04/07 08:29:57;;;;;;;1.13;0.90;;;;;;;12.95;68.13;96725.22;5071064;28;43086;-83
2022/04/07 08:32:26;;;;;;;0.97;0.80;;;;;;;13.10;68.92;96727.25;5052940;28;41709;-87
2022/04/07 08:34:54;;;;;;;1.03;1.00;;;;;;;13.04;68.06;96710.13;5053539;28;41457;-80
2022/04/07 08:37:21;;;;;;;0.67;0.60;;;;;;;13.01;68.03;96710.44;5052866;28;40463;-82
2022/04/07 08:39:49;;;;;;;0.60;0.60;;;;;;;13.19;67.63;96721.81;5070781;28;40668;-82
2022/04/07 08:42:20;;;;;;;0.50;0.50;;;;;;;13.09;67.27;96694.53;5062986;28;43422;-87
2022/04/07 08:44:48;;;;;;;0.50;0.50;;;;;;;13.14;67.21;96700.22;5062407;28;41338;-82
2022/04/07 08:47:18;;;;;;;0.97;0.80;;;;;;;13.47;66.72;96717.03;5065963;28;39730;-81
2022/04/07 08:49:49;;;;;;;0.50;0.50;;;;;;;13.79;66.52;96710.84;5053809;28;43419;-87
2022/04/07 08:52:16;;;;;;;0.47;0.47;;;;;;;14.13;66.16;96697.31;5045600;28;45035;-81
2022/04/07 08:54:46;;;;;;;1.17;0.50;;;;;;;14.32;64.68;96701.44;5051069;28;42510;-80
2022/04/07 08:57:14;;;;;;;0.50;0.50;;;;;;;14.50;63.19;96702.03;5038892;28;38966;-80
2022/04/07 08:59:42;;;;;;;0.40;0.40;;;;;;;14.60;61.99;96693.81;5070422;28;40716;-85
2022/04/07 09:02:11;;;;;;;0.40;0.33;;;;;;;14.73;61.79;96667.47;5062805;28;43700;-85
2022/04/07 09:04:56;;;;;;;1.30;0.50;;;;;;;14.74;60.73;96656.63;5033701;28;42541;-87
2022/04/07 09:07:30;;;;;;;0.30;0.30;;;;;;;15.11;60.13;96695.03;5078713;28;41455;-79
2022/04/07 09:09:59;;;;;;;0.53;0.50;;;;;;;14.80;60.22;96678.25;5052934;28;40485;-80
2022/04/07 09:12:26;;;;;;;0.57;0.57;;;;;;;14.56;61.66;96666.75;5068227;28;43065;-80
2022/04/07 09:14:57;;;;;;;0.40;0.40;;;;;;;14.08;64.23;96624.31;5052938;28;41360;-81
2022/04/07 09:17:26;;;;;;;0.40;0.40;;;;;;;14.00;65.59;96619.84;5044437;28;41504;-84
2022/04/07 09:19:55;;;;;;;0.50;0.50;;;;;;;14.10;65.52;96643.59;5032832;28;40765;-80
2022/04/07 09:22:30;;;;;;;0.67;0.53;;;;;;;13.87;65.08;96607.06;5048131;28;43063;-82
2022/04/07 09:25:05;;;;;;;1.27;0.50;;;;;;;13.88;65.75;96614.06;5091122;28;42013;-92
2022/04/07 09:27:32;;;;;;;0.43;0.33;;;;;;;13.97;65.88;96614.88;5043100;28;39183;-83
2022/04/07 09:30:00;;;;;;;0.50;0.50;;;;;;;14.16;65.02;96610.97;5049635;28;41969;-80
2022/04/07 09:32:28;;;;;;;0.63;0.63;;;;;;;14.24;64.09;96627.72;5057218;28;43820;-86
2022/04/07 09:35:01;;;;;;;0.60;0.60;;;;;;;14.28;62.80;96626.38;5053049;28;40900;-86
2022/04/07 09:37:30;;;;;;;0.40;0.40;;;;;;;14.32;62.85;96619.72;5043453;28;39360;-82
2022/04/07 09:40:10;;;;;;;0.53;0.50;;;;;;;14.67;62.68;96637.03;5083233;28;42440;-89
2022/04/07 09:42:38;;;;;;;0.50;0.40;;;;;;;14.90;61.65;96630.91;5084218;28;44531;-87
2022/04/07 09:45:26;;;;;;;0.40;0.40;;;;;;;14.89;60.48;96618.56;5052435;28;42481;-88
2022/04/07 09:47:54;;;;;;;0.50;0.40;;;;;;;14.95;61.03;96613.38;5038910;28;39329;-79
2022/04/07 09:50:28;;;;;;;0.40;0.40;;;;;;;14.98;60.01;96636.16;5067997;28;41101;-87
2022/04/07 09:52:57;;;;;;;0.70;0.50;;;;;;;15.02;60.72;96602.81;5055757;28;42434;-82
2022/04/07 09:55:28;;;;;;;0.30;0.30;;;;;;;15.08;60.11;96599.47;5049303;28;41786;-87
2022/04/07 09:57:57;;;;;;;0.40;0.40;;;;;;;15.03;60.16;96573.31;5031671;28;38787;-84
2022/04/07 10:00:25;;;;;;;0.30;0.30;;;;;;;15.50;59.57;96585.56;5033465;28;42508;-85
2022/04/07 10:02:54;;;;;;;0.40;0.40;;;;;;;15.85;57.99;96583.22;5037779;28;41653;-85
2022/04/07 10:05:24;;;;;;;0.30;0.30;;;;;;;16.30;57.30;96572.34;5054388;28;42528;-84
2022/04/07 10:07:52;;;;;;;1.20;0.30;;;;;;;16.60;55.62;96581.09;5057863;28;39848;-87
2022/04/07 10:10:26;;;;;;;0.40;0.40;;;;;;;16.87;54.98;96577.72;5035567;28;40843;-87
2022/04/07 10:12:54;;;;;;;0.30;0.30;;;;;;;16.75;54.83;96584.56;5075249;28;42317;-85
2022/04/07 10:15:23;;;;;;;1.00;0.50;;;;;;;16.61;55.20;96580.06;5049053;28;41059;-87
2022/04/07 10:17:51;;;;;;;0.53;0.37;;;;;;;16.36;55.07;96544.84;5066752;28;40837;-86
2022/04/07 10:20:21;;;;;;;0.37;0.37;;;;;;;16.38;55.48;96579.41;5045192;28;40722;-84
2022/04/07 10:23:06;;;;;;;0.30;0.30;;;;;;;16.00;55.91;96552.84;5052217;28;42047;-83
2022/04/07 10:25:43;;;;;;;0.40;0.40;;;;;;;16.07;55.47;96553.75;5053071;28;42482;-82
2022/04/07 10:28:12;;;;;;;1.30;0.40;;;;;;;15.96;55.79;96551.56;5051748;28;38898;-82
2022/04/07 10:30:47;;;;;;;0.30;0.30;;;;;;;15.75;56.53;96530.13;5068689;28;42555;-89
2022/04/07 10:33:43;;;;;;;0.30;0.30;;;;;;;15.92;57.08;96533.44;5052327;28;42061;-85
2022/04/07 10:36:16;;;;;;;0.47;0.47;;;;;;;16.37;56.11;96545.69;5060382;28;42079;-85
2022/04/07 10:38:49;;;;;;;0.40;0.40;;;;;;;16.65;55.34;96538.63;5054999;28;38602;-82
2022/04/07 10:41:47;;;;;;;0.30;0.30;;;;;;;16.74;55.09;96531.31;5070136;28;41389;-82
2022/04/07 10:44:16;;;;;;;0.30;0.30;;;;;;;16.65;55.21;96516.44;5044381;28;43453;-85
2022/04/07 10:46:44;;;;;;;0.40;0.40;;;;;;;16.73;55.87;96486.91;5052130;28;41148;-83
2022/04/07 10:49:12;;;;;;;0.37;0.37;;;;;;;16.85;54.71;96475.50;5035617;28;41612;-80
2022/04/07 10:51:42;;;;;;;0.60;0.30;;;;;;;17.10;53.94;96501.81;5069701;28;43643;-82
2022/04/07 10:54:11;;;;;;;0.73;0.57;;;;;;;17.23;54.62;96493.88;5070535;28;42723;-78
2022/04/07 10:56:40;;;;;;;0.43;0.43;;;;;;;17.28;53.69;96496.81;5068451;28;42341;-80
2022/04/07 10:59:19;;;;;;;0.43;0.43;;;;;;;17.28;54.72;96486.09;5104198;28;40674;-79
2022/04/07 11:02:02;;;;;;;0.63;0.40;;;;;;;16.80;56.50;96477.09;5067902;28;42702;-78
2022/04/07 11:05:03;;;;;;;0.37;0.33;;;;;;;16.23;58.61;96450.41;5089870;28;42705;-81
2022/04/07 11:07:51;;;;;;;0.93;0.50;;;;;;;15.99;59.37;96447.09;5075124;28;41177;-82
2022/04/07 11:10:43;;;;;;;0.73;0.60;;;;;;;16.30;60.45;96443.31;5088840;28;38799;-81
2022/04/07 11:13:10;;;;;;;0.30;0.30;;;;;;;16.73;57.31;96428.94;5053127;28;41005;-83
2022/04/07 11:15:56;;;;;;;0.30;0.30;;;;;;;17.18;56.66;96429.47;5071285;28;42091;-86
2022/04/07 11:19:20;;;;;;;0.30;0.30;;;;;;;16.86;55.51;96396.13;5054515;28;42817;-90
2022/04/07 11:21:50;;;;;;;0.23;0.23;;;;;;;17.26;55.45;96439.19;5054498;28;39359;-87
2022/04/07 11:24:28;;;;;;;0.30;0.30;;;;;;;17.42;55.31;96436.19;5050889;28;40755;-78
2022/04/07 11:26:57;;;;;;;0.90;0.30;;;;;;;17.34;55.19;96437.16;5056571;28;42790;-85
2022/04/07 11:29:40;;;;;;;0.40;0.40;;;;;;;17.51;54.40;96426.97;5035534;28;41777;-85
2022/04/07 11:32:10;;;;;;;0.80;0.30;;;;;;;17.56;54.35;96440.56;5068252;28;38977;-90
2022/04/07 11:34:52;;;;;;;0.37;0.37;;;;;;;17.70;54.22;96441.50;5037852;28;40909;-85
2022/04/07 11:37:20;;;;;;;0.30;0.30;;;;;;;17.64;53.51;96415.53;5047038;28;44082;-85
2022/04/07 11:39:50;;;;;;;0.70;0.40;;;;;;;17.32;54.17;96396.41;5051347;28;42118;-83
2022/04/07 11:42:21;;;;;;;0.30;0.30;;;;;;;17.28;54.21;96389.00;5084206;28;40677;-87
2022/04/07 11:44:49;;;;;;;0.30;0.30;;;;;;;17.29;53.91;96391.47;5048868;28;42694;-83